sensor_id;sensor_type;location;lat;lon;timestamp;P1;durP1;ratioP1;P2;durP2;ratioP2
12567;SDS011;6349;50.904;6.136;2022-09-17T00:00:10;3.10;;;1.53;;
12567;SDS011;6349;50.904;6.136;2022-09-17T00:02:11;2.83;;;1.73;;
12567;SDS011;6349;50.904;6.136;2022-09-17T00:04:13;5.23;;;1.47;;
12567;SDS011;6349;50.904;6.136;2022-09-17T00:06:13;1.93;;;1.40;;
12567;SDS011;6349;50.904;6.136;2022-09-17T00:08:14;3.37;;;1.57;;
12567;SDS011;6349;50.904;6.136;2022-09-17T00:10:15;3.77;;;1.40;;
12567;SDS011;6349;50.904;6.136;2022-09-17T00:12:17;3.07;;;1.40;;
12567;SDS011;6349;50.904;6.136;2022-09-17T00:14:17;3.53;;;1.47;;
12567;SDS011;6349;50.904;6.136;2022-09-17T00:16:26;3.97;;;1.67;;
12567;SDS011;6349;50.904;6.136;2022-09-17T00:18:30;3.17;;;1.57;;
12567;SDS011;6349;50.904;6.136;2022-09-17T00:20:36;5.47;;;1.70;;
12567;SDS011;6349;50.904;6.136;2022-09-17T00:22:38;4.33;;;1.63;;
12567;SDS011;6349;50.904;6.136;2022-09-17T00:24:39;3.47;;;1.40;;
12567;SDS011;6349;50.904;6.136;2022-09-17T00:26:40;3.30;;;1.30;;
12567;SDS011;6349;50.904;6.136;2022-09-17T00:28:42;3.20;;;1.60;;
12567;SDS011;6349;50.904;6.136;2022-09-17T00:30:47;7.70;;;1.73;;
12567;SDS011;6349;50.904;6.136;2022-09-17T00:32:47;3.43;;;1.53;;
12567;SDS011;6349;50.904;6.136;2022-09-17T00:34:49;3.00;;;1.83;;
12567;SDS011;6349;50.904;6.136;2022-09-17T00:36:51;2.97;;;1.43;;
12567;SDS011;6349;50.904;6.136;2022-09-17T00:38:52;4.53;;;1.50;;
12567;SDS011;6349;50.904;6.136;2022-09-17T00:40:54;4.50;;;1.50;;
12567;SDS011;6349;50.904;6.136;2022-09-17T00:42:55;3.83;;;1.77;;
12567;SDS011;6349;50.904;6.136;2022-09-17T00:44:57;4.57;;;1.50;;
12567;SDS011;6349;50.904;6.136;2022-09-17T00:46:57;2.57;;;1.50;;
12567;SDS011;6349;50.904;6.136;2022-09-17T00:48:59;5.30;;;1.40;;
12567;SDS011;6349;50.904;6.136;2022-09-17T00:51:02;2.90;;;1.50;;
12567;SDS011;6349;50.904;6.136;2022-09-17T00:53:16;3.87;;;1.60;;
12567;SDS011;6349;50.904;6.136;2022-09-17T00:55:22;7.97;;;2.10;;
12567;SDS011;6349;50.904;6.136;2022-09-17T00:57:27;2.70;;;1.30;;
12567;SDS011;6349;50.904;6.136;2022-09-17T00:59:29;4.07;;;1.73;;
12567;SDS011;6349;50.904;6.136;2022-09-17T01:01:30;5.07;;;1.53;;
12567;SDS011;6349;50.904;6.136;2022-09-17T01:03:31;2.60;;;1.30;;
12567;SDS011;6349;50.904;6.136;2022-09-17T01:05:35;4.47;;;1.37;;
12567;SDS011;6349;50.904;6.136;2022-09-17T01:07:55;3.27;;;1.50;;
12567;SDS011;6349;50.904;6.136;2022-09-17T01:15:13;3.83;;;1.60;;
12567;SDS011;6349;50.904;6.136;2022-09-17T01:22:06;4.70;;;1.60;;
12567;SDS011;6349;50.904;6.136;2022-09-17T01:24:38;2.97;;;1.50;;
12567;SDS011;6349;50.904;6.136;2022-09-17T01:26:52;4.13;;;1.90;;
12567;SDS011;6349;50.904;6.136;2022-09-17T01:32:22;3.37;;;1.57;;
12567;SDS011;6349;50.904;6.136;2022-09-17T01:34:32;2.93;;;1.40;;
12567;SDS011;6349;50.904;6.136;2022-09-17T01:41:45;4.27;;;1.60;;
12567;SDS011;6349;50.904;6.136;2022-09-17T01:43:55;3.47;;;1.40;;
12567;SDS011;6349;50.904;6.136;2022-09-17T01:46:06;3.03;;;1.50;;
12567;SDS011;6349;50.904;6.136;2022-09-17T01:48:18;3.93;;;1.40;;
12567;SDS011;6349;50.904;6.136;2022-09-17T01:50:24;4.77;;;1.30;;
12567;SDS011;6349;50.904;6.136;2022-09-17T01:52:31;5.33;;;1.60;;
12567;SDS011;6349;50.904;6.136;2022-09-17T01:54:39;3.53;;;1.40;;
12567;SDS011;6349;50.904;6.136;2022-09-17T01:56:45;4.27;;;1.50;;
12567;SDS011;6349;50.904;6.136;2022-09-17T01:58:57;5.23;;;1.63;;
12567;SDS011;6349;50.904;6.136;2022-09-17T02:01:05;2.70;;;2.00;;
12567;SDS011;6349;50.904;6.136;2022-09-17T02:03:10;3.20;;;1.50;;
12567;SDS011;6349;50.904;6.136;2022-09-17T02:05:23;4.37;;;1.93;;
12567;SDS011;6349;50.904;6.136;2022-09-17T02:07:30;4.20;;;1.70;;
12567;SDS011;6349;50.904;6.136;2022-09-17T02:09:37;6.53;;;1.83;;
12567;SDS011;6349;50.904;6.136;2022-09-17T02:11:45;3.73;;;1.70;;
12567;SDS011;6349;50.904;6.136;2022-09-17T02:13:53;4.87;;;1.70;;
12567;SDS011;6349;50.904;6.136;2022-09-17T02:16:01;2.83;;;1.50;;
12567;SDS011;6349;50.904;6.136;2022-09-17T02:18:38;3.73;;;1.70;;
12567;SDS011;6349;50.904;6.136;2022-09-17T02:20:29;5.73;;;2.00;;
12567;SDS011;6349;50.904;6.136;2022-09-17T02:22:41;3.77;;;1.80;;
12567;SDS011;6349;50.904;6.136;2022-09-17T02:24:49;5.80;;;1.70;;
12567;SDS011;6349;50.904;6.136;2022-09-17T02:27:10;6.87;;;1.90;;
12567;SDS011;6349;50.904;6.136;2022-09-17T02:29:34;2.80;;;1.70;;
12567;SDS011;6349;50.904;6.136;2022-09-17T02:31:37;4.50;;;1.80;;
12567;SDS011;6349;50.904;6.136;2022-09-17T02:33:42;4.53;;;1.90;;
12567;SDS011;6349;50.904;6.136;2022-09-17T02:35:47;3.80;;;1.50;;
12567;SDS011;6349;50.904;6.136;2022-09-17T02:37:48;4.20;;;1.50;;
12567;SDS011;6349;50.904;6.136;2022-09-17T02:39:49;3.23;;;1.57;;
12567;SDS011;6349;50.904;6.136;2022-09-17T02:42:01;4.17;;;1.80;;
12567;SDS011;6349;50.904;6.136;2022-09-17T02:44:25;5.33;;;1.47;;
12567;SDS011;6349;50.904;6.136;2022-09-17T02:46:42;3.30;;;1.30;;
12567;SDS011;6349;50.904;6.136;2022-09-17T02:51:22;2.67;;;1.43;;
12567;SDS011;6349;50.904;6.136;2022-09-17T02:53:37;4.47;;;1.40;;
12567;SDS011;6349;50.904;6.136;2022-09-17T02:55:51;3.60;;;1.43;;
12567;SDS011;6349;50.904;6.136;2022-09-17T03:00:27;4.93;;;1.57;;
12567;SDS011;6349;50.904;6.136;2022-09-17T03:02:29;4.53;;;1.70;;
12567;SDS011;6349;50.904;6.136;2022-09-17T03:04:39;6.73;;;1.50;;
12567;SDS011;6349;50.904;6.136;2022-09-17T03:06:44;5.07;;;1.43;;
12567;SDS011;6349;50.904;6.136;2022-09-17T03:08:46;2.67;;;1.30;;
12567;SDS011;6349;50.904;6.136;2022-09-17T03:10:46;6.30;;;1.43;;
12567;SDS011;6349;50.904;6.136;2022-09-17T03:12:48;5.30;;;1.43;;
12567;SDS011;6349;50.904;6.136;2022-09-17T03:14:49;3.47;;;1.57;;
12567;SDS011;6349;50.904;6.136;2022-09-17T03:16:49;4.00;;;1.70;;
12567;SDS011;6349;50.904;6.136;2022-09-17T03:18:50;5.53;;;1.73;;
12567;SDS011;6349;50.904;6.136;2022-09-17T03:20:51;4.67;;;1.70;;
12567;SDS011;6349;50.904;6.136;2022-09-17T03:22:51;4.33;;;1.23;;
12567;SDS011;6349;50.904;6.136;2022-09-17T03:24:52;3.70;;;1.60;;
12567;SDS011;6349;50.904;6.136;2022-09-17T03:26:53;5.53;;;1.57;;
12567;SDS011;6349;50.904;6.136;2022-09-17T03:28:54;9.23;;;1.63;;
12567;SDS011;6349;50.904;6.136;2022-09-17T03:30:55;4.57;;;1.30;;
12567;SDS011;6349;50.904;6.136;2022-09-17T03:32:55;5.93;;;1.50;;
12567;SDS011;6349;50.904;6.136;2022-09-17T03:34:56;3.13;;;1.13;;
12567;SDS011;6349;50.904;6.136;2022-09-17T03:36:57;4.97;;;1.53;;
12567;SDS011;6349;50.904;6.136;2022-09-17T03:38:57;6.40;;;1.97;;
12567;SDS011;6349;50.904;6.136;2022-09-17T03:41:00;5.80;;;1.53;;
12567;SDS011;6349;50.904;6.136;2022-09-17T03:43:03;3.87;;;1.43;;
12567;SDS011;6349;50.904;6.136;2022-09-17T03:45:05;6.93;;;1.40;;
12567;SDS011;6349;50.904;6.136;2022-09-17T03:47:06;5.13;;;1.43;;
12567;SDS011;6349;50.904;6.136;2022-09-17T03:49:07;5.37;;;1.70;;
12567;SDS011;6349;50.904;6.136;2022-09-17T03:51:08;4.90;;;1.50;;
12567;SDS011;6349;50.904;6.136;2022-09-17T03:53:09;4.87;;;1.40;;
12567;SDS011;6349;50.904;6.136;2022-09-17T03:55:10;5.27;;;1.40;;
12567;SDS011;6349;50.904;6.136;2022-09-17T03:57:11;4.67;;;1.37;;
12567;SDS011;6349;50.904;6.136;2022-09-17T03:59:11;5.73;;;1.93;;
12567;SDS011;6349;50.904;6.136;2022-09-17T04:01:12;4.80;;;1.40;;
12567;SDS011;6349;50.904;6.136;2022-09-17T04:03:14;5.33;;;1.40;;
12567;SDS011;6349;50.904;6.136;2022-09-17T04:05:15;4.80;;;1.40;;
12567;SDS011;6349;50.904;6.136;2022-09-17T04:07:15;4.83;;;1.30;;
12567;SDS011;6349;50.904;6.136;2022-09-17T04:09:16;4.93;;;1.67;;
12567;SDS011;6349;50.904;6.136;2022-09-17T04:11:17;2.87;;;1.27;;
12567;SDS011;6349;50.904;6.136;2022-09-17T04:13:17;3.07;;;1.50;;
12567;SDS011;6349;50.904;6.136;2022-09-17T04:15:18;4.93;;;1.47;;
12567;SDS011;6349;50.904;6.136;2022-09-17T04:17:19;6.77;;;1.40;;
12567;SDS011;6349;50.904;6.136;2022-09-17T04:19:19;5.83;;;1.20;;
12567;SDS011;6349;50.904;6.136;2022-09-17T04:21:20;5.00;;;1.50;;
12567;SDS011;6349;50.904;6.136;2022-09-17T04:23:21;4.13;;;1.40;;
12567;SDS011;6349;50.904;6.136;2022-09-17T04:25:21;4.17;;;1.30;;
12567;SDS011;6349;50.904;6.136;2022-09-17T04:27:22;7.03;;;1.90;;
12567;SDS011;6349;50.904;6.136;2022-09-17T04:29:23;4.27;;;1.83;;
12567;SDS011;6349;50.904;6.136;2022-09-17T04:31:23;4.33;;;1.20;;
12567;SDS011;6349;50.904;6.136;2022-09-17T04:33:26;3.23;;;1.63;;
12567;SDS011;6349;50.904;6.136;2022-09-17T04:35:26;4.43;;;1.40;;
12567;SDS011;6349;50.904;6.136;2022-09-17T04:37:27;5.17;;;1.70;;
12567;SDS011;6349;50.904;6.136;2022-09-17T04:39:28;6.50;;;1.70;;
12567;SDS011;6349;50.904;6.136;2022-09-17T04:41:29;4.13;;;1.50;;
12567;SDS011;6349;50.904;6.136;2022-09-17T04:43:30;6.63;;;1.50;;
12567;SDS011;6349;50.904;6.136;2022-09-17T04:45:30;4.17;;;1.40;;
12567;SDS011;6349;50.904;6.136;2022-09-17T04:47:32;3.30;;;1.30;;
12567;SDS011;6349;50.904;6.136;2022-09-17T04:49:33;5.37;;;1.63;;
12567;SDS011;6349;50.904;6.136;2022-09-17T04:51:33;5.20;;;1.70;;
12567;SDS011;6349;50.904;6.136;2022-09-17T04:53:34;5.97;;;1.30;;
12567;SDS011;6349;50.904;6.136;2022-09-17T04:55:35;2.90;;;1.63;;
12567;SDS011;6349;50.904;6.136;2022-09-17T04:57:36;5.50;;;1.80;;
12567;SDS011;6349;50.904;6.136;2022-09-17T04:59:37;5.60;;;2.00;;
12567;SDS011;6349;50.904;6.136;2022-09-17T05:01:38;6.33;;;1.80;;
12567;SDS011;6349;50.904;6.136;2022-09-17T05:03:39;3.07;;;1.40;;
12567;SDS011;6349;50.904;6.136;2022-09-17T05:05:39;2.83;;;1.77;;
12567;SDS011;6349;50.904;6.136;2022-09-17T05:07:41;5.03;;;1.47;;
12567;SDS011;6349;50.904;6.136;2022-09-17T05:09:42;3.70;;;1.30;;
12567;SDS011;6349;50.904;6.136;2022-09-17T05:11:43;4.40;;;1.63;;
12567;SDS011;6349;50.904;6.136;2022-09-17T05:13:44;4.50;;;1.70;;
12567;SDS011;6349;50.904;6.136;2022-09-17T05:15:44;5.33;;;1.73;;
12567;SDS011;6349;50.904;6.136;2022-09-17T05:17:45;3.63;;;1.40;;
12567;SDS011;6349;50.904;6.136;2022-09-17T05:19:46;5.13;;;1.60;;
12567;SDS011;6349;50.904;6.136;2022-09-17T05:21:46;5.60;;;1.63;;
12567;SDS011;6349;50.904;6.136;2022-09-17T05:23:47;5.13;;;1.60;;
12567;SDS011;6349;50.904;6.136;2022-09-17T05:25:49;4.63;;;1.40;;
12567;SDS011;6349;50.904;6.136;2022-09-17T05:27:50;5.63;;;1.70;;
12567;SDS011;6349;50.904;6.136;2022-09-17T05:29:52;3.47;;;1.40;;
12567;SDS011;6349;50.904;6.136;2022-09-17T05:31:52;2.87;;;1.10;;
12567;SDS011;6349;50.904;6.136;2022-09-17T05:33:53;4.20;;;1.90;;
12567;SDS011;6349;50.904;6.136;2022-09-17T05:35:54;4.97;;;1.80;;
12567;SDS011;6349;50.904;6.136;2022-09-17T05:37:55;3.83;;;1.50;;
12567;SDS011;6349;50.904;6.136;2022-09-17T05:39:57;4.60;;;1.70;;
12567;SDS011;6349;50.904;6.136;2022-09-17T05:41:58;5.10;;;1.50;;
12567;SDS011;6349;50.904;6.136;2022-09-17T05:43:58;4.97;;;1.53;;
12567;SDS011;6349;50.904;6.136;2022-09-17T05:46:00;5.20;;;1.50;;
12567;SDS011;6349;50.904;6.136;2022-09-17T05:48:03;3.40;;;1.40;;
12567;SDS011;6349;50.904;6.136;2022-09-17T05:50:05;3.63;;;1.17;;
12567;SDS011;6349;50.904;6.136;2022-09-17T05:52:06;3.83;;;1.40;;
12567;SDS011;6349;50.904;6.136;2022-09-17T05:54:07;5.40;;;1.50;;
12567;SDS011;6349;50.904;6.136;2022-09-17T05:56:08;4.80;;;1.40;;
12567;SDS011;6349;50.904;6.136;2022-09-17T05:58:10;2.97;;;1.30;;
12567;SDS011;6349;50.904;6.136;2022-09-17T06:00:13;4.40;;;1.30;;
12567;SDS011;6349;50.904;6.136;2022-09-17T06:02:14;4.13;;;1.40;;
12567;SDS011;6349;50.904;6.136;2022-09-17T06:04:15;4.53;;;1.20;;
12567;SDS011;6349;50.904;6.136;2022-09-17T06:06:17;6.93;;;1.43;;
12567;SDS011;6349;50.904;6.136;2022-09-17T06:08:17;6.10;;;1.60;;
12567;SDS011;6349;50.904;6.136;2022-09-17T06:10:18;5.00;;;1.30;;
12567;SDS011;6349;50.904;6.136;2022-09-17T06:12:18;3.57;;;1.53;;
12567;SDS011;6349;50.904;6.136;2022-09-17T06:14:19;4.23;;;1.37;;
12567;SDS011;6349;50.904;6.136;2022-09-17T06:16:20;3.53;;;1.40;;
12567;SDS011;6349;50.904;6.136;2022-09-17T06:18:21;5.47;;;1.60;;
12567;SDS011;6349;50.904;6.136;2022-09-17T06:20:22;6.10;;;1.40;;
12567;SDS011;6349;50.904;6.136;2022-09-17T06:22:23;4.33;;;1.40;;
12567;SDS011;6349;50.904;6.136;2022-09-17T06:24:25;5.93;;;1.63;;
12567;SDS011;6349;50.904;6.136;2022-09-17T06:26:26;4.17;;;1.37;;
12567;SDS011;6349;50.904;6.136;2022-09-17T06:28:26;5.97;;;1.73;;
12567;SDS011;6349;50.904;6.136;2022-09-17T06:30:28;6.33;;;1.33;;
12567;SDS011;6349;50.904;6.136;2022-09-17T06:32:28;3.80;;;1.57;;
12567;SDS011;6349;50.904;6.136;2022-09-17T06:34:29;5.13;;;1.60;;
12567;SDS011;6349;50.904;6.136;2022-09-17T06:36:30;5.93;;;1.90;;
12567;SDS011;6349;50.904;6.136;2022-09-17T06:38:31;4.83;;;1.53;;
12567;SDS011;6349;50.904;6.136;2022-09-17T06:40:33;5.00;;;1.57;;
12567;SDS011;6349;50.904;6.136;2022-09-17T06:42:34;4.50;;;1.40;;
12567;SDS011;6349;50.904;6.136;2022-09-17T06:44:38;4.63;;;1.50;;
12567;SDS011;6349;50.904;6.136;2022-09-17T06:46:40;4.27;;;1.50;;
12567;SDS011;6349;50.904;6.136;2022-09-17T06:48:43;4.87;;;1.30;;
12567;SDS011;6349;50.904;6.136;2022-09-17T06:50:43;4.13;;;1.27;;
12567;SDS011;6349;50.904;6.136;2022-09-17T06:52:47;4.17;;;1.30;;
12567;SDS011;6349;50.904;6.136;2022-09-17T06:54:49;4.93;;;1.40;;
12567;SDS011;6349;50.904;6.136;2022-09-17T06:56:49;3.03;;;1.20;;
12567;SDS011;6349;50.904;6.136;2022-09-17T06:58:50;5.67;;;1.50;;
12567;SDS011;6349;50.904;6.136;2022-09-17T07:00:56;4.97;;;1.60;;
12567;SDS011;6349;50.904;6.136;2022-09-17T07:02:59;4.40;;;1.73;;
12567;SDS011;6349;50.904;6.136;2022-09-17T07:05:00;4.57;;;1.60;;
12567;SDS011;6349;50.904;6.136;2022-09-17T07:07:01;6.00;;;1.60;;
12567;SDS011;6349;50.904;6.136;2022-09-17T07:09:04;4.63;;;1.53;;
12567;SDS011;6349;50.904;6.136;2022-09-17T07:11:06;5.67;;;1.63;;
12567;SDS011;6349;50.904;6.136;2022-09-17T07:13:08;7.53;;;1.80;;
12567;SDS011;6349;50.904;6.136;2022-09-17T07:15:09;7.00;;;1.67;;
12567;SDS011;6349;50.904;6.136;2022-09-17T07:17:11;5.17;;;1.50;;
12567;SDS011;6349;50.904;6.136;2022-09-17T07:19:12;5.27;;;1.70;;
12567;SDS011;6349;50.904;6.136;2022-09-17T07:21:12;4.90;;;1.90;;
12567;SDS011;6349;50.904;6.136;2022-09-17T07:23:13;3.87;;;1.40;;
12567;SDS011;6349;50.904;6.136;2022-09-17T07:25:13;3.50;;;1.40;;
12567;SDS011;6349;50.904;6.136;2022-09-17T07:27:15;6.97;;;1.90;;
12567;SDS011;6349;50.904;6.136;2022-09-17T07:29:16;4.43;;;1.80;;
12567;SDS011;6349;50.904;6.136;2022-09-17T07:31:19;2.70;;;1.20;;
12567;SDS011;6349;50.904;6.136;2022-09-17T07:33:22;8.73;;;1.63;;
12567;SDS011;6349;50.904;6.136;2022-09-17T07:35:24;5.40;;;1.37;;
12567;SDS011;6349;50.904;6.136;2022-09-17T07:37:25;7.10;;;1.60;;
12567;SDS011;6349;50.904;6.136;2022-09-17T07:39:25;3.70;;;1.50;;
12567;SDS011;6349;50.904;6.136;2022-09-17T07:41:26;4.17;;;1.47;;
12567;SDS011;6349;50.904;6.136;2022-09-17T07:43:27;6.07;;;1.37;;
12567;SDS011;6349;50.904;6.136;2022-09-17T07:45:31;6.27;;;1.87;;
12567;SDS011;6349;50.904;6.136;2022-09-17T07:47:36;4.80;;;1.63;;
12567;SDS011;6349;50.904;6.136;2022-09-17T07:49:38;7.00;;;1.63;;
12567;SDS011;6349;50.904;6.136;2022-09-17T07:51:39;5.40;;;1.57;;
12567;SDS011;6349;50.904;6.136;2022-09-17T07:53:39;4.47;;;1.67;;
12567;SDS011;6349;50.904;6.136;2022-09-17T07:55:40;6.37;;;1.60;;
12567;SDS011;6349;50.904;6.136;2022-09-17T07:57:41;3.80;;;1.33;;
12567;SDS011;6349;50.904;6.136;2022-09-17T07:59:42;5.50;;;1.93;;
12567;SDS011;6349;50.904;6.136;2022-09-17T08:01:43;6.27;;;1.50;;
12567;SDS011;6349;50.904;6.136;2022-09-17T08:03:47;5.03;;;1.50;;
12567;SDS011;6349;50.904;6.136;2022-09-17T08:05:50;3.53;;;1.60;;
12567;SDS011;6349;50.904;6.136;2022-09-17T08:07:51;8.33;;;1.97;;
12567;SDS011;6349;50.904;6.136;2022-09-17T08:09:53;6.73;;;1.57;;
12567;SDS011;6349;50.904;6.136;2022-09-17T08:11:55;4.77;;;1.80;;
12567;SDS011;6349;50.904;6.136;2022-09-17T08:13:56;5.73;;;2.00;;
12567;SDS011;6349;50.904;6.136;2022-09-17T08:15:58;4.17;;;1.70;;
12567;SDS011;6349;50.904;6.136;2022-09-17T08:18:01;7.10;;;1.93;;
12567;SDS011;6349;50.904;6.136;2022-09-17T08:20:03;4.50;;;1.73;;
12567;SDS011;6349;50.904;6.136;2022-09-17T08:22:04;3.77;;;1.30;;
12567;SDS011;6349;50.904;6.136;2022-09-17T08:24:05;4.97;;;1.60;;
12567;SDS011;6349;50.904;6.136;2022-09-17T08:26:06;5.47;;;1.50;;
12567;SDS011;6349;50.904;6.136;2022-09-17T08:28:11;6.70;;;2.10;;
12567;SDS011;6349;50.904;6.136;2022-09-17T08:30:12;6.37;;;1.90;;
12567;SDS011;6349;50.904;6.136;2022-09-17T08:32:13;4.67;;;1.93;;
12567;SDS011;6349;50.904;6.136;2022-09-17T08:34:13;7.17;;;1.80;;
12567;SDS011;6349;50.904;6.136;2022-09-17T08:36:15;4.70;;;1.50;;
12567;SDS011;6349;50.904;6.136;2022-09-17T08:38:17;4.60;;;1.50;;
12567;SDS011;6349;50.904;6.136;2022-09-17T08:40:19;4.37;;;1.50;;
12567;SDS011;6349;50.904;6.136;2022-09-17T08:42:26;5.77;;;1.67;;
12567;SDS011;6349;50.904;6.136;2022-09-17T08:44:38;3.33;;;1.40;;
12567;SDS011;6349;50.904;6.136;2022-09-17T08:46:45;4.97;;;1.93;;
12567;SDS011;6349;50.904;6.136;2022-09-17T08:48:55;5.03;;;1.53;;
12567;SDS011;6349;50.904;6.136;2022-09-17T08:53:55;5.10;;;1.80;;
12567;SDS011;6349;50.904;6.136;2022-09-17T08:56:17;4.20;;;1.50;;
12567;SDS011;6349;50.904;6.136;2022-09-17T08:58:22;4.23;;;1.10;;
12567;SDS011;6349;50.904;6.136;2022-09-17T09:00:32;6.93;;;1.60;;
12567;SDS011;6349;50.904;6.136;2022-09-17T09:05:13;7.63;;;1.47;;
12567;SDS011;6349;50.904;6.136;2022-09-17T09:07:17;3.33;;;1.27;;
12567;SDS011;6349;50.904;6.136;2022-09-17T09:09:23;5.00;;;1.27;;
12567;SDS011;6349;50.904;6.136;2022-09-17T09:11:29;3.93;;;1.30;;
12567;SDS011;6349;50.904;6.136;2022-09-17T09:13:33;5.40;;;1.40;;
12567;SDS011;6349;50.904;6.136;2022-09-17T09:15:40;5.83;;;1.40;;
12567;SDS011;6349;50.904;6.136;2022-09-17T09:17:45;4.27;;;1.60;;
12567;SDS011;6349;50.904;6.136;2022-09-17T09:19:48;4.40;;;1.70;;
12567;SDS011;6349;50.904;6.136;2022-09-17T09:22:00;5.23;;;1.27;;
12567;SDS011;6349;50.904;6.136;2022-09-17T09:31:18;5.83;;;1.70;;
12567;SDS011;6349;50.904;6.136;2022-09-17T09:33:42;3.00;;;1.07;;
12567;SDS011;6349;50.904;6.136;2022-09-17T09:35:44;7.53;;;1.97;;
12567;SDS011;6349;50.904;6.136;2022-09-17T09:37:50;3.70;;;1.50;;
12567;SDS011;6349;50.904;6.136;2022-09-17T09:40:06;2.67;;;1.20;;
12567;SDS011;6349;50.904;6.136;2022-09-17T09:42:34;4.97;;;1.40;;
12567;SDS011;6349;50.904;6.136;2022-09-17T09:44:38;6.57;;;1.70;;
12567;SDS011;6349;50.904;6.136;2022-09-17T09:49:07;3.70;;;1.20;;
12567;SDS011;6349;50.904;6.136;2022-09-17T09:51:42;3.40;;;1.00;;
12567;SDS011;6349;50.904;6.136;2022-09-17T09:54:09;6.17;;;1.27;;
12567;SDS011;6349;50.904;6.136;2022-09-17T09:56:37;2.17;;;0.97;;
12567;SDS011;6349;50.904;6.136;2022-09-17T09:58:51;1.90;;;0.83;;
12567;SDS011;6349;50.904;6.136;2022-09-17T10:00:51;1.93;;;0.93;;
12567;SDS011;6349;50.904;6.136;2022-09-17T10:02:56;2.43;;;0.77;;
12567;SDS011;6349;50.904;6.136;2022-09-17T10:05:18;1.70;;;0.60;;
12567;SDS011;6349;50.904;6.136;2022-09-17T10:07:19;3.47;;;1.20;;
12567;SDS011;6349;50.904;6.136;2022-09-17T10:09:20;1.80;;;1.10;;
12567;SDS011;6349;50.904;6.136;2022-09-17T10:11:23;4.77;;;0.93;;
12567;SDS011;6349;50.904;6.136;2022-09-17T10:13:27;2.47;;;0.90;;
12567;SDS011;6349;50.904;6.136;2022-09-17T10:15:29;2.97;;;1.20;;
12567;SDS011;6349;50.904;6.136;2022-09-17T10:17:30;2.20;;;1.03;;
12567;SDS011;6349;50.904;6.136;2022-09-17T10:19:30;3.03;;;0.90;;
12567;SDS011;6349;50.904;6.136;2022-09-17T10:21:33;5.07;;;1.20;;
12567;SDS011;6349;50.904;6.136;2022-09-17T10:23:36;3.50;;;0.80;;
12567;SDS011;6349;50.904;6.136;2022-09-17T10:25:42;3.97;;;1.10;;
12567;SDS011;6349;50.904;6.136;2022-09-17T10:27:43;3.60;;;1.17;;
12567;SDS011;6349;50.904;6.136;2022-09-17T10:29:47;5.70;;;1.30;;
12567;SDS011;6349;50.904;6.136;2022-09-17T10:31:51;3.97;;;1.10;;
12567;SDS011;6349;50.904;6.136;2022-09-17T10:33:55;4.40;;;1.30;;
12567;SDS011;6349;50.904;6.136;2022-09-17T10:36:00;3.03;;;0.90;;
12567;SDS011;6349;50.904;6.136;2022-09-17T10:38:03;2.90;;;1.17;;
12567;SDS011;6349;50.904;6.136;2022-09-17T10:40:19;2.07;;;1.00;;
12567;SDS011;6349;50.904;6.136;2022-09-17T10:42:26;2.20;;;0.87;;
12567;SDS011;6349;50.904;6.136;2022-09-17T10:44:34;2.73;;;0.80;;
12567;SDS011;6349;50.904;6.136;2022-09-17T10:46:36;5.17;;;1.37;;
12567;SDS011;6349;50.904;6.136;2022-09-17T10:48:38;1.93;;;0.70;;
12567;SDS011;6349;50.904;6.136;2022-09-17T10:50:46;3.80;;;0.93;;
12567;SDS011;6349;50.904;6.136;2022-09-17T10:52:49;4.73;;;1.03;;
12567;SDS011;6349;50.904;6.136;2022-09-17T10:57:40;4.30;;;1.03;;
12567;SDS011;6349;50.904;6.136;2022-09-17T10:59:58;3.63;;;1.00;;
12567;SDS011;6349;50.904;6.136;2022-09-17T11:02:16;2.20;;;0.90;;
12567;SDS011;6349;50.904;6.136;2022-09-17T11:04:30;4.70;;;0.70;;
12567;SDS011;6349;50.904;6.136;2022-09-17T11:07:31;2.20;;;0.80;;
12567;SDS011;6349;50.904;6.136;2022-09-17T11:09:36;3.07;;;1.20;;
12567;SDS011;6349;50.904;6.136;2022-09-17T11:15:19;3.40;;;0.97;;
12567;SDS011;6349;50.904;6.136;2022-09-17T11:16:56;3.60;;;1.10;;
12567;SDS011;6349;50.904;6.136;2022-09-17T11:19:26;4.10;;;1.17;;
12567;SDS011;6349;50.904;6.136;2022-09-17T11:24:38;2.27;;;1.13;;
12567;SDS011;6349;50.904;6.136;2022-09-17T11:26:53;2.67;;;1.00;;
12567;SDS011;6349;50.904;6.136;2022-09-17T11:32:20;2.83;;;0.90;;
12567;SDS011;6349;50.904;6.136;2022-09-17T11:34:13;2.63;;;0.80;;
12567;SDS011;6349;50.904;6.136;2022-09-17T11:36:43;2.60;;;0.80;;
12567;SDS011;6349;50.904;6.136;2022-09-17T11:38:50;3.73;;;1.03;;
12567;SDS011;6349;50.904;6.136;2022-09-17T11:41:02;2.87;;;1.20;;
12567;SDS011;6349;50.904;6.136;2022-09-17T11:43:13;2.93;;;1.10;;
12567;SDS011;6349;50.904;6.136;2022-09-17T11:45:26;3.40;;;1.33;;
12567;SDS011;6349;50.904;6.136;2022-09-17T11:47:36;2.13;;;0.87;;
12567;SDS011;6349;50.904;6.136;2022-09-17T11:49:50;3.90;;;1.13;;
12567;SDS011;6349;50.904;6.136;2022-09-17T11:51:58;3.33;;;0.97;;
12567;SDS011;6349;50.904;6.136;2022-09-17T11:54:05;2.23;;;0.80;;
12567;SDS011;6349;50.904;6.136;2022-09-17T11:56:19;4.20;;;1.10;;
12567;SDS011;6349;50.904;6.136;2022-09-17T11:58:58;3.93;;;1.57;;
12567;SDS011;6349;50.904;6.136;2022-09-17T12:01:10;2.70;;;0.97;;
12567;SDS011;6349;50.904;6.136;2022-09-17T12:03:24;3.03;;;0.77;;
12567;SDS011;6349;50.904;6.136;2022-09-17T12:05:36;2.53;;;0.70;;
12567;SDS011;6349;50.904;6.136;2022-09-17T12:07:46;1.50;;;0.70;;
12567;SDS011;6349;50.904;6.136;2022-09-17T12:12:38;1.43;;;0.80;;
12567;SDS011;6349;50.904;6.136;2022-09-17T12:14:48;1.17;;;0.50;;
12567;SDS011;6349;50.904;6.136;2022-09-17T12:16:56;1.13;;;0.50;;
12567;SDS011;6349;50.904;6.136;2022-09-17T12:19:16;1.73;;;0.73;;
12567;SDS011;6349;50.904;6.136;2022-09-17T12:21:56;1.73;;;0.50;;
12567;SDS011;6349;50.904;6.136;2022-09-17T12:24:08;2.20;;;0.67;;
12567;SDS011;6349;50.904;6.136;2022-09-17T12:31:52;3.07;;;0.93;;
12567;SDS011;6349;50.904;6.136;2022-09-17T12:36:33;2.20;;;0.90;;
12567;SDS011;6349;50.904;6.136;2022-09-17T12:38:52;1.97;;;0.93;;
12567;SDS011;6349;50.904;6.136;2022-09-17T12:41:18;2.50;;;0.73;;
12567;SDS011;6349;50.904;6.136;2022-09-17T12:43:30;2.30;;;1.00;;
12567;SDS011;6349;50.904;6.136;2022-09-17T12:48:23;2.10;;;1.03;;
12567;SDS011;6349;50.904;6.136;2022-09-17T12:50:53;5.00;;;0.73;;
12567;SDS011;6349;50.904;6.136;2022-09-17T12:53:21;1.83;;;0.63;;
12567;SDS011;6349;50.904;6.136;2022-09-17T12:58:02;1.20;;;0.43;;
12567;SDS011;6349;50.904;6.136;2022-09-17T13:00:26;2.50;;;0.53;;
12567;SDS011;6349;50.904;6.136;2022-09-17T13:02:30;1.77;;;0.80;;
12567;SDS011;6349;50.904;6.136;2022-09-17T13:05:04;1.87;;;0.77;;
12567;SDS011;6349;50.904;6.136;2022-09-17T13:17:12;1.83;;;0.60;;
12567;SDS011;6349;50.904;6.136;2022-09-17T13:19:26;1.23;;;0.60;;
12567;SDS011;6349;50.904;6.136;2022-09-17T13:24:21;1.63;;;0.80;;
12567;SDS011;6349;50.904;6.136;2022-09-17T13:26:34;2.40;;;0.63;;
12567;SDS011;6349;50.904;6.136;2022-09-17T13:28:41;2.57;;;0.83;;
12567;SDS011;6349;50.904;6.136;2022-09-17T13:30:59;1.97;;;0.80;;
12567;SDS011;6349;50.904;6.136;2022-09-17T13:33:00;2.33;;;0.73;;
12567;SDS011;6349;50.904;6.136;2022-09-17T13:37:20;1.43;;;0.60;;
12567;SDS011;6349;50.904;6.136;2022-09-17T13:39:45;6.67;;;0.70;;
12567;SDS011;6349;50.904;6.136;2022-09-17T13:41:45;1.90;;;0.73;;
12567;SDS011;6349;50.904;6.136;2022-09-17T13:43:46;3.33;;;0.50;;
12567;SDS011;6349;50.904;6.136;2022-09-17T13:48:15;2.70;;;0.70;;
12567;SDS011;6349;50.904;6.136;2022-09-17T13:50:25;1.70;;;0.70;;
12567;SDS011;6349;50.904;6.136;2022-09-17T13:52:32;1.67;;;0.63;;
12567;SDS011;6349;50.904;6.136;2022-09-17T13:54:50;1.40;;;0.60;;
12567;SDS011;6349;50.904;6.136;2022-09-17T13:57:01;1.60;;;0.80;;
12567;SDS011;6349;50.904;6.136;2022-09-17T13:59:08;1.57;;;0.83;;
12567;SDS011;6349;50.904;6.136;2022-09-17T14:01:12;2.97;;;0.80;;
12567;SDS011;6349;50.904;6.136;2022-09-17T14:05:39;2.43;;;0.83;;
12567;SDS011;6349;50.904;6.136;2022-09-17T14:07:44;3.97;;;0.97;;
12567;SDS011;6349;50.904;6.136;2022-09-17T14:09:49;2.03;;;0.83;;
12567;SDS011;6349;50.904;6.136;2022-09-17T14:12:03;2.93;;;0.90;;
12567;SDS011;6349;50.904;6.136;2022-09-17T14:14:47;3.03;;;0.90;;